Fish Creek, WI (54212)

10:06 AM CDT on April 25, 2017 (GMT -0500)
Peninsula Center | | Change Station

Elev 666 ft 45.05 °N, 87.21 °W | Updated 18 seconds ago

Clear
Clear
63.0 °F
Feels Like 63.0 °F
N
6.9
Wind Variable Wind from SE
Gusts 12.1 mph

Today
High -- | Low -- °F
--% Chance of Precip.
Yesterday
High -- | Low -- °F
Precip. -- in
Pressure 29.77 in
Visibility 10.0 miles
Clouds Clear
Dew Point 45 °F
Humidity 51%
Rainfall 0.00 in
Snow Depth Not available.
5:46 AM 7:47 PM
Waning Crescent, 1% visible
METAR KMNM 251456Z AUTO 16011KT 10SM CLR 13/07 A2970 RMK AO2 SLP081 T01330072 58010 $
Pressure 29.77 in
Visibility 10.0 miles
Clouds Clear
Dew Point 45 °F
Humidity 51%
Rainfall 0.00 in
Snow Depth Not available.
5:46 AM 7:47 PM
Waning Crescent, 1% visible
METAR KMNM 251456Z AUTO 16011KT 10SM CLR 13/07 A2970 RMK AO2 SLP081 T01330072 58010 $

Get Severe Weather Alerts

Thanks for signing up!

Be on the lookout for a verification email in your inbox.

You'll start receiving the daily forecast at 8 AM.

×

10-Day Weather Forecast

Almanac

Astronomy

Apr. 25, 2017 Rise Set
Actual Time
Civil Twilight
Nautical Twilight
Astronomical Twilight
Moon
Length of Visible Light
Length of Day
Tomorrow will be .
, % of the Moon is Illuminated

Today's Extremes

State Highs State Lows

Community

WunderPhotos

WunderBlog® & News

Nearby

Air Quality

  Air Quality AQ Index Pollutant
Not available.

Snow Depth

Station Depth Elevation

Earthquake Activity

City Distance Mag. Time & Date
Minimum magnitude displayed is 2.5.

Coastal Water Temperatures

Place Temperature

Stations

Nearby Weather Stations

Station Location Temp. Windchill Dew Point Humidity Wind Precip. Elev Updated Type
                   

Watches & Warnings

There are currently no watches in effect.